Time;durP1;ratioP1;P1;durP2;ratioP2;P2;SDS_P1;SDS_P2;PMS_P1;PMS_P2;Temp;Humidity;BMP_temperature;BMP_pressure;BME280_temperature;BME280_humidity;BME280_pressure;Samples;Min_cycle;Max_cycle;Signal;HPM_P1;HPM_P2
2022/04/04 00:01:20;;;;;;;0.10;0.10;;;;;;;;;;4999245;28;20042;-83
2022/04/04 00:03:46;;;;;;;0.20;0.20;;;;;;;;;;5002519;28;20038;-82
2022/04/04 00:06:12;;;;;;;0.08;0.08;;;;;;;;;;5001805;28;20129;-83
2022/04/04 00:08:38;;;;;;;1.50;1.40;;;;;;;;;;4996468;28;20046;-81
2022/04/04 00:11:04;;;;;;;0.20;0.20;;;;;;;;;;5003128;28;20494;-81
2022/04/04 00:13:31;;;;;;;0.20;0.20;;;;;;;;;;4995161;28;20498;-80
2022/04/04 00:15:56;;;;;;;0.43;0.43;;;;;;;;;;5001866;28;20034;-81
2022/04/04 00:18:23;;;;;;;0.20;0.20;;;;;;;;;;5003300;28;20040;-81
2022/04/04 00:20:49;;;;;;;0.17;0.17;;;;;;;;;;5002742;28;20036;-80
2022/04/04 00:23:16;;;;;;;0.20;0.20;;;;;;;;;;5002912;28;20033;-81
2022/04/04 00:25:42;;;;;;;0.10;0.10;;;;;;;;;;5001740;28;20044;-81
2022/04/04 00:28:09;;;;;;;0.10;0.10;;;;;;;;;;5001711;28;20045;-81
2022/04/04 00:30:36;;;;;;;0.20;0.20;;;;;;;;;;5002957;28;20117;-80
2022/04/04 00:33:02;;;;;;;0.43;0.43;;;;;;;;;;5002796;28;20052;-79
2022/04/04 00:35:29;;;;;;;0.50;0.50;;;;;;;;;;5001139;28;20041;-80
2022/04/04 00:37:56;;;;;;;0.52;0.52;;;;;;;;;;5002571;28;20041;-80
2022/04/04 00:40:22;;;;;;;0.30;0.30;;;;;;;;;;5002250;28;20033;-80
2022/04/04 00:42:48;;;;;;;0.20;0.20;;;;;;;;;;5002817;28;20176;-80
2022/04/04 00:45:14;;;;;;;0.20;0.20;;;;;;;;;;5002573;28;20034;-80
2022/04/04 00:47:40;;;;;;;0.10;0.10;;;;;;;;;;5002935;28;20042;-80
2022/04/04 00:50:06;;;;;;;0.28;0.28;;;;;;;;;;5002605;28;20026;-80
2022/04/04 00:52:33;;;;;;;0.82;0.82;;;;;;;;;;5002618;28;20111;-80
2022/04/04 00:54:59;;;;;;;0.75;0.75;;;;;;;;;;4977717;28;20067;-80
2022/04/04 00:57:25;;;;;;;2.37;0.90;;;;;;;;;;4997919;28;20516;-79
2022/04/04 00:59:51;;;;;;;0.45;0.25;;;;;;;;;;4999762;28;21150;-79
2022/04/04 01:02:17;;;;;;;0.50;0.50;;;;;;;;;;4995195;28;20100;-80
2022/04/04 01:04:44;;;;;;;0.10;0.10;;;;;;;;;;5002102;28;20038;-80
2022/04/04 01:07:10;;;;;;;0.55;0.55;;;;;;;;;;5002871;28;20034;-79
2022/04/04 01:09:36;;;;;;;0.10;0.10;;;;;;;;;;5003149;28;20376;-80
2022/04/04 01:12:09;;;;;;;0.10;0.10;;;;;;;;;;5002333;28;20549;-78
2022/04/04 01:14:37;;;;;;;0.35;0.35;;;;;;;;;;5001321;28;20025;-78
2022/04/04 01:17:02;;;;;;;;;;;;;;;;;;5002898;28;20030;-78
2022/04/04 01:19:29;;;;;;;0.13;0.13;;;;;;;;;;4996360;28;19921;-78
2022/04/04 01:21:55;;;;;;;0.10;0.10;;;;;;;;;;4996897;28;20493;-79
2022/04/04 01:24:21;;;;;;;0.63;0.63;;;;;;;;;;5003064;28;20092;-79
2022/04/04 01:26:48;;;;;;;0.50;0.50;;;;;;;;;;5001461;28;20041;-78
2022/04/04 01:29:14;;;;;;;0.55;0.55;;;;;;;;;;5001983;28;20096;-78
2022/04/04 01:31:40;;;;;;;0.17;0.17;;;;;;;;;;5002214;28;20552;-78
2022/04/04 01:34:06;;;;;;;1.55;1.38;;;;;;;;;;5002472;28;20049;-79
2022/04/04 01:36:32;;;;;;;0.13;0.13;;;;;;;;;;5002811;28;20032;-79
2022/04/04 01:38:58;;;;;;;0.40;0.40;;;;;;;;;;5006314;28;20519;-79
2022/04/04 01:41:24;;;;;;;0.30;0.30;;;;;;;;;;5005574;28;20030;-79
2022/04/04 01:43:51;;;;;;;0.25;0.25;;;;;;;;;;5003444;28;20033;-79
2022/04/04 01:46:27;;;;;;;0.03;0.03;;;;;;;;;;5006200;28;20037;-79
2022/04/04 01:48:57;;;;;;;0.13;0.13;;;;;;;;;;5003537;28;20124;-79
2022/04/04 01:51:23;;;;;;;1.23;0.47;;;;;;;;;;5006182;28;20029;-79
2022/04/04 01:53:50;;;;;;;0.63;0.63;;;;;;;;;;5003575;28;20029;-79
2022/04/04 01:56:17;;;;;;;0.30;0.30;;;;;;;;;;5005985;28;20138;-77
2022/04/04 01:58:43;;;;;;;2.90;1.35;;;;;;;;;;5005007;28;20805;-78
2022/04/04 02:01:17;;;;;;;0.75;0.32;;;;;;;;;;5003709;28;20030;-78
2022/04/04 02:03:44;;;;;;;1.98;0.63;;;;;;;;;;5004086;28;20848;-78
2022/04/04 02:06:11;;;;;;;0.47;0.47;;;;;;;;;;5004502;28;20826;-78
2022/04/04 02:08:37;;;;;;;0.43;0.43;;;;;;;;;;5005494;28;20034;-78
2022/04/04 02:11:04;;;;;;;0.10;0.10;;;;;;;;;;5004739;28;20045;-78
2022/04/04 02:13:31;;;;;;;0.10;0.10;;;;;;;;;;4996749;28;20608;-79
2022/04/04 02:16:00;;;;;;;0.43;0.43;;;;;;;;;;5005397;28;20044;-79
2022/04/04 02:18:27;;;;;;;1.17;0.50;;;;;;;;;;5003887;28;20080;-78
2022/04/04 02:20:53;;;;;;;0.10;0.10;;;;;;;;;;5004962;28;20030;-78
2022/04/04 02:23:20;;;;;;;0.10;0.10;;;;;;;;;;5003910;28;20562;-78
2022/04/04 02:25:46;;;;;;;0.32;0.32;;;;;;;;;;5004226;28;20502;-81
2022/04/04 02:28:13;;;;;;;0.43;0.38;;;;;;;;;;5005106;28;20053;-81
2022/04/04 02:30:39;;;;;;;0.30;0.30;;;;;;;;;;5004686;28;20026;-81
2022/04/04 02:33:05;;;;;;;0.47;0.47;;;;;;;;;;5002581;28;20042;-81
2022/04/04 02:35:31;;;;;;;0.17;0.17;;;;;;;;;;5004612;28;20026;-81
2022/04/04 02:37:58;;;;;;;0.10;0.10;;;;;;;;;;5005471;28;20033;-81
2022/04/04 02:40:24;;;;;;;0.20;0.20;;;;;;;;;;5004136;28;20472;-80
2022/04/04 02:42:50;;;;;;;0.10;0.10;;;;;;;;;;4994151;28;20026;-79
2022/04/04 02:45:16;;;;;;;0.10;0.10;;;;;;;;;;5004141;28;20811;-78
2022/04/04 02:47:43;;;;;;;0.10;0.10;;;;;;;;;;5000906;28;20463;-78
2022/04/04 02:50:09;;;;;;;0.15;0.15;;;;;;;;;;4993276;28;20068;-79
2022/04/04 02:52:35;;;;;;;0.10;0.10;;;;;;;;;;5001088;28;20061;-79
2022/04/04 02:57:47;;;;;;;0.20;0.20;;;;;;;;;;5002300;28;20041;-78
2022/04/04 03:00:14;;;;;;;0.10;0.10;;;;;;;;;;5002420;28;20497;-79
2022/04/04 03:02:40;;;;;;;0.38;0.38;;;;;;;;;;5001679;28;20536;-78
2022/04/04 03:05:06;;;;;;;0.20;0.20;;;;;;;;;;5004805;28;20033;-77
2022/04/04 03:07:32;;;;;;;1.10;1.00;;;;;;;;;;5004368;28;20041;-77
2022/04/04 03:09:58;;;;;;;0.10;0.10;;;;;;;;;;5004451;28;20034;-78
2022/04/04 03:12:24;;;;;;;0.20;0.20;;;;;;;;;;5004629;28;20034;-77
2022/04/04 03:14:51;;;;;;;1.23;1.23;;;;;;;;;;5003527;28;20026;-77
2022/04/04 03:17:17;;;;;;;0.32;0.32;;;;;;;;;;5004220;28;20033;-77
2022/04/04 03:19:43;;;;;;;0.10;0.10;;;;;;;;;;5004280;28;20189;-77
2022/04/04 03:22:10;;;;;;;0.20;0.20;;;;;;;;;;5004467;28;20327;-77
2022/04/04 03:24:36;;;;;;;0.88;0.80;;;;;;;;;;5004749;28;20029;-77
2022/04/04 03:27:02;;;;;;;1.50;1.33;;;;;;;;;;4999870;28;20065;-78
2022/04/04 03:29:28;;;;;;;0.32;0.32;;;;;;;;;;5003701;28;20041;-77
2022/04/04 03:31:54;;;;;;;0.38;0.38;;;;;;;;;;5003343;28;20582;-77
2022/04/04 03:34:20;;;;;;;0.10;0.10;;;;;;;;;;5003241;28;20030;-78
2022/04/04 03:36:47;;;;;;;0.20;0.20;;;;;;;;;;5003973;28;20029;-78
2022/04/04 03:39:16;;;;;;;0.25;0.25;;;;;;;;;;5001668;28;20038;-77
2022/04/04 03:41:45;;;;;;;0.30;0.30;;;;;;;;;;5002673;28;20769;-79
2022/04/04 03:44:11;;;;;;;0.22;0.22;;;;;;;;;;5001012;28;20033;-79
2022/04/04 03:46:38;;;;;;;0.43;0.43;;;;;;;;;;4997637;28;20038;-78
2022/04/04 03:49:04;;;;;;;0.40;0.40;;;;;;;;;;5003977;28;20500;-78
2022/04/04 03:51:30;;;;;;;0.70;0.70;;;;;;;;;;5004128;28;20025;-78
2022/04/04 03:53:56;;;;;;;0.10;0.10;;;;;;;;;;5001273;28;20069;-79
2022/04/04 03:56:22;;;;;;;0.23;0.23;;;;;;;;;;5003360;28;20830;-78
2022/04/04 03:58:50;;;;;;;0.20;0.20;;;;;;;;;;5003830;28;20281;-78
2022/04/04 04:01:16;;;;;;;0.10;0.10;;;;;;;;;;5000197;28;20041;-78
2022/04/04 04:03:42;;;;;;;0.32;0.32;;;;;;;;;;5001227;28;20038;-78
2022/04/04 04:06:11;;;;;;;0.30;0.30;;;;;;;;;;5002394;28;20120;-77
2022/04/04 04:08:38;;;;;;;0.10;0.10;;;;;;;;;;5001770;28;20332;-77
2022/04/04 04:11:04;;;;;;;0.10;0.10;;;;;;;;;;5002771;28;20030;-78
2022/04/04 04:13:30;;;;;;;0.10;0.10;;;;;;;;;;5003621;28;20072;-77
2022/04/04 04:15:56;;;;;;;0.30;0.30;;;;;;;;;;5003764;28;20054;-77
2022/04/04 04:18:22;;;;;;;0.20;0.20;;;;;;;;;;5003838;28;20040;-76
2022/04/04 04:20:48;;;;;;;0.10;0.10;;;;;;;;;;4998239;28;20053;-78
2022/04/04 04:23:14;;;;;;;0.30;0.30;;;;;;;;;;5002586;28;20536;-77
2022/04/04 04:25:40;;;;;;;0.10;0.10;;;;;;;;;;4998373;28;20044;-76
2022/04/04 04:28:06;;;;;;;0.10;0.10;;;;;;;;;;5002781;28;20037;-76
2022/04/04 04:30:33;;;;;;;0.10;0.10;;;;;;;;;;5001786;28;20523;-78
2022/04/04 04:32:59;;;;;;;0.28;0.28;;;;;;;;;;5002731;28;20033;-78
2022/04/04 04:35:26;;;;;;;0.40;0.40;;;;;;;;;;4997929;28;20049;-78
2022/04/04 04:37:52;;;;;;;0.20;0.20;;;;;;;;;;5002572;28;20037;-78
2022/04/04 04:40:18;;;;;;;0.40;0.40;;;;;;;;;;5002639;28;20021;-79
2022/04/04 04:42:45;;;;;;;2.80;1.17;;;;;;;;;;5002967;28;20049;-83
2022/04/04 04:45:11;;;;;;;0.30;0.30;;;;;;;;;;5002737;28;20049;-81
2022/04/04 04:47:38;;;;;;;0.30;0.30;;;;;;;;;;4998651;28;20111;-81
2022/04/04 04:50:05;;;;;;;3.23;1.43;;;;;;;;;;5002489;28;20034;-80
2022/04/04 04:52:31;;;;;;;0.20;0.20;;;;;;;;;;5001554;28;20033;-82
2022/04/04 04:54:57;;;;;;;6.93;1.00;;;;;;;;;;5002561;28;20037;-82
2022/04/04 04:57:24;;;;;;;0.43;0.40;;;;;;;;;;5002907;28;20042;-83
2022/04/04 04:59:50;;;;;;;14.68;1.35;;;;;;;;;;5002175;28;20070;-82
2022/04/04 05:02:16;;;;;;;0.13;0.13;;;;;;;;;;5001769;28;20509;-80
2022/04/04 05:04:42;;;;;;;0.15;0.15;;;;;;;;;;4994885;28;20059;-78
2022/04/04 05:07:08;;;;;;;0.10;0.10;;;;;;;;;;5003918;28;20033;-80
2022/04/04 05:09:37;;;;;;;0.32;0.32;;;;;;;;;;4996642;28;20038;-81
2022/04/04 05:12:03;;;;;;;0.10;0.10;;;;;;;;;;5001604;28;20026;-81
2022/04/04 05:14:29;;;;;;;0.50;0.50;;;;;;;;;;5005905;28;20029;-80
2022/04/04 05:16:55;;;;;;;0.10;0.10;;;;;;;;;;5005911;28;20317;-82
2022/04/04 05:19:25;;;;;;;0.37;0.37;;;;;;;;;;4992932;28;20029;-81
2022/04/04 05:21:54;;;;;;;0.20;0.20;;;;;;;;;;5007734;28;20296;-81
2022/04/04 05:24:20;;;;;;;0.30;0.30;;;;;;;;;;5005509;28;20062;-85
2022/04/04 05:26:46;;;;;;;0.10;0.10;;;;;;;;;;5007324;28;20058;-88
2022/04/04 05:29:17;;;;;;;0.32;0.30;;;;;;;;;;5004384;28;20067;-83
2022/04/04 05:31:45;;;;;;;0.10;0.10;;;;;;;;;;5005603;28;20038;-82
2022/04/04 05:34:11;;;;;;;0.40;0.40;;;;;;;;;;5005203;28;20750;-81
2022/04/04 05:36:37;;;;;;;1.30;1.20;;;;;;;;;;5001470;28;20040;-88
2022/04/04 05:39:04;;;;;;;0.10;0.10;;;;;;;;;;5009210;28;20070;-90
2022/04/04 05:41:30;;;;;;;0.25;0.25;;;;;;;;;;5011066;28;20546;-87
2022/04/04 05:43:56;;;;;;;0.30;0.30;;;;;;;;;;5005495;28;20421;-86
2022/04/04 05:46:22;;;;;;;0.10;0.10;;;;;;;;;;5006357;28;20292;-87
2022/04/04 05:48:48;;;;;;;0.63;0.63;;;;;;;;;;5004948;28;20562;-84
2022/04/04 05:51:16;;;;;;;0.20;0.20;;;;;;;;;;5002315;28;20383;-83
2022/04/04 05:53:43;;;;;;;0.10;0.10;;;;;;;;;;5004486;28;20026;-82
2022/04/04 05:56:09;;;;;;;0.20;0.20;;;;;;;;;;5003893;28;20092;-85
2022/04/04 05:58:36;;;;;;;3.10;1.60;;;;;;;;;;5005984;28;20026;-85
2022/04/04 06:01:02;;;;;;;1.15;0.47;;;;;;;;;;5004408;28;20152;-86
2022/04/04 06:03:28;;;;;;;0.55;0.38;;;;;;;;;;5007180;28;20116;-86
2022/04/04 06:05:54;;;;;;;0.88;0.85;;;;;;;;;;5006343;28;20092;-86
2022/04/04 06:08:20;;;;;;;0.30;0.30;;;;;;;;;;5006627;28;20045;-85
2022/04/04 06:10:47;;;;;;;0.08;0.05;;;;;;;;;;5005782;28;20040;-86
2022/04/04 06:13:16;;;;;;;0.22;0.22;;;;;;;;;;5006809;28;20025;-86
2022/04/04 06:15:43;;;;;;;0.98;0.90;;;;;;;;;;5006920;28;20033;-86
2022/04/04 06:18:10;;;;;;;0.20;0.20;;;;;;;;;;5005768;28;20045;-86
2022/04/04 06:20:36;;;;;;;0.80;0.80;;;;;;;;;;5006062;28;20103;-87
2022/04/04 06:23:02;;;;;;;0.20;0.20;;;;;;;;;;5004500;28;20034;-86
2022/04/04 06:25:28;;;;;;;0.40;0.40;;;;;;;;;;5006609;28;20033;-85
2022/04/04 06:27:54;;;;;;;0.75;0.75;;;;;;;;;;5005698;28;20717;-86
2022/04/04 06:30:21;;;;;;;0.40;0.40;;;;;;;;;;5006871;28;20446;-85
2022/04/04 06:32:47;;;;;;;0.20;0.20;;;;;;;;;;5006270;28;20500;-84
2022/04/04 06:35:13;;;;;;;0.10;0.10;;;;;;;;;;5005910;28;20099;-84
2022/04/04 06:37:40;;;;;;;0.10;0.10;;;;;;;;;;5005253;28;20079;-86
2022/04/04 06:40:07;;;;;;;0.30;0.30;;;;;;;;;;5005047;28;20044;-86
2022/04/04 06:42:36;;;;;;;0.63;0.63;;;;;;;;;;5005517;28;20057;-87
2022/04/04 06:45:03;;;;;;;0.20;0.20;;;;;;;;;;5004614;28;20537;-86
2022/04/04 06:47:30;;;;;;;;;;;;;;;;;;5004214;28;20038;-87
2022/04/04 06:49:57;;;;;;;0.10;0.10;;;;;;;;;;5007400;28;19913;-86
2022/04/04 06:52:23;;;;;;;0.50;0.50;;;;;;;;;;5006984;28;20037;-86
2022/04/04 06:54:49;;;;;;;0.70;0.70;;;;;;;;;;5005085;28;20029;-86
2022/04/04 06:57:16;;;;;;;0.30;0.30;;;;;;;;;;5005971;28;20018;-86
2022/04/04 06:59:42;;;;;;;;;;;;;;;;;;5006505;28;20117;-86
2022/04/04 07:02:09;;;;;;;0.43;0.43;;;;;;;;;;5005651;28;19917;-86
2022/04/04 07:04:37;;;;;;;0.45;0.32;;;;;;;;;;5006511;28;20029;-87
2022/04/04 07:07:04;;;;;;;0.43;0.43;;;;;;;;;;5006154;28;20092;-86
2022/04/04 07:09:30;;;;;;;0.50;0.50;;;;;;;;;;5005578;28;20041;-86
2022/04/04 07:11:57;;;;;;;0.47;0.47;;;;;;;;;;5004564;28;20493;-86
2022/04/04 07:14:24;;;;;;;0.30;0.30;;;;;;;;;;5004885;28;20500;-86
2022/04/04 07:16:52;;;;;;;0.47;0.47;;;;;;;;;;5004472;28;20062;-86
2022/04/04 07:19:20;;;;;;;0.90;0.90;;;;;;;;;;5004819;28;20038;-86
2022/04/04 07:21:46;;;;;;;0.30;0.30;;;;;;;;;;5004900;28;20030;-85
2022/04/04 07:24:12;;;;;;;0.17;0.17;;;;;;;;;;5004076;28;20045;-86
2022/04/04 07:26:38;;;;;;;0.10;0.10;;;;;;;;;;5001820;28;20037;-85
2022/04/04 07:29:04;;;;;;;1.40;0.50;;;;;;;;;;5003964;28;20033;-86
2022/04/04 07:31:30;;;;;;;0.27;0.27;;;;;;;;;;5003957;28;20091;-86
2022/04/04 07:33:56;;;;;;;0.10;0.10;;;;;;;;;;5003597;28;20261;-86
2022/04/04 07:36:22;;;;;;;0.33;0.33;;;;;;;;;;5004183;28;20477;-86
2022/04/04 07:38:48;;;;;;;0.23;0.23;;;;;;;;;;5003885;28;20280;-86
2022/04/04 07:41:14;;;;;;;0.20;0.20;;;;;;;;;;5001409;28;20045;-86
2022/04/04 07:43:40;;;;;;;0.53;0.53;;;;;;;;;;5004155;28;20165;-86
2022/04/04 07:46:07;;;;;;;0.20;0.20;;;;;;;;;;5003547;28;20372;-87
2022/04/04 07:48:33;;;;;;;0.30;0.30;;;;;;;;;;5004513;28;20128;-87
2022/04/04 07:50:59;;;;;;;0.28;0.28;;;;;;;;;;5003609;28;20038;-86
2022/04/04 07:53:26;;;;;;;0.45;0.45;;;;;;;;;;5003022;28;20510;-86
2022/04/04 07:55:52;;;;;;;0.43;0.43;;;;;;;;;;5003425;28;20052;-86
2022/04/04 07:58:18;;;;;;;1.10;0.35;;;;;;;;;;5003627;28;20025;-87
2022/04/04 08:00:45;;;;;;;0.28;0.28;;;;;;;;;;4999687;28;20069;-87
2022/04/04 08:03:10;;;;;;;;;;;;;;;;;;5003764;28;20034;-86
2022/04/04 08:05:37;;;;;;;2.17;0.77;;;;;;;;;;5003367;28;20415;-86
2022/04/04 08:08:03;;;;;;;0.40;0.40;;;;;;;;;;5003754;28;20127;-86
2022/04/04 08:10:29;;;;;;;0.43;0.43;;;;;;;;;;5003355;28;20409;-86
2022/04/04 08:12:55;;;;;;;0.20;0.20;;;;;;;;;;5004524;28;20898;-87
2022/04/04 08:15:21;;;;;;;0.70;0.70;;;;;;;;;;5019720;28;20547;-86
2022/04/04 08:17:47;;;;;;;1.23;1.13;;;;;;;;;;5004016;28;20502;-86
2022/04/04 08:20:13;;;;;;;0.23;0.23;;;;;;;;;;5002405;28;20040;-87
2022/04/04 08:22:40;;;;;;;0.30;0.30;;;;;;;;;;5004103;28;20396;-86
2022/04/04 08:25:07;;;;;;;0.20;0.20;;;;;;;;;;5003591;28;20036;-86
2022/04/04 08:27:35;;;;;;;0.50;0.50;;;;;;;;;;5012414;28;20076;-87
2022/04/04 08:30:02;;;;;;;0.10;0.10;;;;;;;;;;5005128;28;20537;-87
2022/04/04 08:32:28;;;;;;;0.30;0.30;;;;;;;;;;5003575;28;20052;-86
2022/04/04 08:34:54;;;;;;;0.27;0.27;;;;;;;;;;5004032;28;20061;-86
2022/04/04 08:37:20;;;;;;;0.65;0.65;;;;;;;;;;5003857;28;20276;-87
2022/04/04 08:39:47;;;;;;;0.20;0.20;;;;;;;;;;5003586;28;20787;-87
2022/04/04 08:42:13;;;;;;;;;;;;;;;;;;5004568;28;20137;-87
2022/04/04 08:44:40;;;;;;;0.10;0.10;;;;;;;;;;5004433;28;20000;-87
2022/04/04 08:47:06;;;;;;;;;;;;;;;;;;5003879;28;20038;-87
2022/04/04 08:49:32;;;;;;;0.10;0.10;;;;;;;;;;5004028;28;19913;-86
2022/04/04 08:51:58;;;;;;;1.20;0.83;;;;;;;;;;5004090;28;20112;-87
2022/04/04 08:54:24;;;;;;;0.10;0.10;;;;;;;;;;5004866;28;20257;-86
2022/04/04 08:56:50;;;;;;;0.10;0.10;;;;;;;;;;5004177;28;20516;-87
2022/04/04 08:59:17;;;;;;;0.53;0.53;;;;;;;;;;5002792;28;20026;-87
2022/04/04 09:01:43;;;;;;;0.20;0.20;;;;;;;;;;5003861;28;20289;-87
2022/04/04 09:04:09;;;;;;;0.43;0.30;;;;;;;;;;5003918;28;20037;-86
2022/04/04 09:06:55;;;;;;;0.10;0.10;;;;;;;;;;5005002;28;20265;-86
2022/04/04 09:09:25;;;;;;;0.15;0.15;;;;;;;;;;5003843;28;20085;-87
2022/04/04 09:11:52;;;;;;;0.20;0.20;;;;;;;;;;5004007;28;20879;-87
2022/04/04 09:14:21;;;;;;;0.30;0.30;;;;;;;;;;5002324;28;20077;-87
2022/04/04 09:16:55;;;;;;;0.88;0.82;;;;;;;;;;5004047;28;20059;-87
2022/04/04 09:19:29;;;;;;;0.28;0.28;;;;;;;;;;4989112;28;20675;-87
2022/04/04 09:21:55;;;;;;;0.77;0.77;;;;;;;;;;5004491;28;20022;-86
2022/04/04 09:24:22;;;;;;;0.68;0.65;;;;;;;;;;5005086;28;20038;-87
2022/04/04 09:26:49;;;;;;;0.85;0.70;;;;;;;;;;5004034;28;20579;-87
2022/04/04 09:29:24;;;;;;;0.20;0.20;;;;;;;;;;5004069;28;20045;-87
2022/04/04 09:32:05;;;;;;;0.38;0.38;;;;;;;;;;5002524;28;20109;-87
2022/04/04 09:34:31;;;;;;;0.63;0.52;;;;;;;;;;4989686;28;20505;-87
2022/04/04 09:36:58;;;;;;;0.20;0.20;;;;;;;;;;5003951;28;20840;-87
2022/04/04 09:39:25;;;;;;;0.80;0.30;;;;;;;;;;5004215;28;20105;-86
2022/04/04 09:41:51;;;;;;;0.40;0.40;;;;;;;;;;5003431;28;20470;-87
2022/04/04 09:44:25;;;;;;;0.10;0.10;;;;;;;;;;5002189;28;20069;-87
2022/04/04 09:46:51;;;;;;;0.00;0.00;;;;;;;;;;5003884;28;20030;-86
2022/04/04 09:49:20;;;;;;;0.30;0.30;;;;;;;;;;5003519;28;20524;-87
2022/04/04 09:51:49;;;;;;;0.22;0.17;;;;;;;;;;5000198;28;20093;-87
2022/04/04 09:54:23;;;;;;;0.45;0.45;;;;;;;;;;5003292;28;20064;-87
2022/04/04 09:56:56;;;;;;;0.15;0.15;;;;;;;;;;5001249;28;20034;-87
2022/04/04 09:59:22;;;;;;;0.05;0.05;;;;;;;;;;5006144;28;20034;-87
2022/04/04 10:01:48;;;;;;;0.10;0.10;;;;;;;;;;5006440;28;20049;-87
2022/04/04 10:04:14;;;;;;;0.40;0.30;;;;;;;;;;5006980;28;20533;-87
2022/04/04 10:06:42;;;;;;;0.35;0.20;;;;;;;;;;5007298;28;20026;-87
2022/04/04 10:09:09;;;;;;;2.15;0.73;;;;;;;;;;5006867;28;20111;-87
2022/04/04 10:11:37;;;;;;;0.28;0.28;;;;;;;;;;5006059;28;20026;-87
2022/04/04 10:14:03;;;;;;;2.70;0.57;;;;;;;;;;5006884;28;20088;-87
2022/04/04 10:16:30;;;;;;;0.10;0.10;;;;;;;;;;5007198;28;20025;-88
2022/04/04 10:18:57;;;;;;;3.20;0.65;;;;;;;;;;5006973;28;20022;-87
2022/04/04 10:21:25;;;;;;;;;;;;;;;;;;5007567;28;20116;-87
2022/04/04 10:23:52;;;;;;;0.10;0.10;;;;;;;;;;5006108;28;19936;-87
2022/04/04 10:26:20;;;;;;;3.17;0.73;;;;;;;;;;5002879;28;20521;-87
2022/04/04 10:28:47;;;;;;;0.10;0.10;;;;;;;;;;5004858;28;20034;-85
2022/04/04 10:31:15;;;;;;;0.10;0.10;;;;;;;;;;5004661;28;20125;-86
2022/04/04 10:33:42;;;;;;;0.13;0.13;;;;;;;;;;4997153;28;20045;-88
2022/04/04 10:36:08;;;;;;;;;;;;;;;;;;5006603;28;20274;-88
2022/04/04 10:38:34;;;;;;;0.20;0.20;;;;;;;;;;5005456;28;19940;-89
2022/04/04 10:41:06;;;;;;;0.10;0.10;;;;;;;;;;5010362;23;20054;-86
2022/04/04 10:43:34;;;;;;;0.22;0.22;;;;;;;;;;4998862;23;20046;-87
2022/04/04 10:46:05;;;;;;;0.13;0.13;;;;;;;;;;4985157;28;20037;-88
2022/04/04 10:48:35;;;;;;;0.65;0.65;;;;;;;;;;4989415;28;20077;-87
2022/04/04 10:51:23;;;;;;;0.20;0.20;;;;;;;;;;4986480;28;20034;-87
2022/04/04 10:53:51;;;;;;;0.20;0.20;;;;;;;;;;4980485;28;20122;-88
2022/04/04 10:59:23;;;;;;;0.30;0.30;;;;;;;;;;4984322;28;20029;-88
2022/04/04 11:01:51;;;;;;;0.20;0.20;;;;;;;;;;4988429;28;20030;-88
2022/04/04 11:04:24;;;;;;;0.63;0.52;;;;;;;;;;4985409;28;20026;-87
2022/04/04 11:09:47;;;;;;;1.38;1.00;;;;;;;;;;4985655;28;20100;-88
2022/04/04 11:12:14;;;;;;;0.10;0.10;;;;;;;;;;4984916;28;20038;-88
2022/04/04 11:14:44;;;;;;;0.35;0.35;;;;;;;;;;4983418;28;20045;-88
2022/04/04 11:17:21;;;;;;;0.10;0.10;;;;;;;;;;4983114;28;20030;-89
2022/04/04 11:19:57;;;;;;;0.35;0.35;;;;;;;;;;4985322;28;20137;-87
2022/04/04 11:22:27;;;;;;;0.52;0.52;;;;;;;;;;4984659;28;23058;-88
2022/04/04 11:25:03;;;;;;;0.32;0.32;;;;;;;;;;4990050;28;20058;-88
2022/04/04 11:27:30;;;;;;;0.15;0.15;;;;;;;;;;4988341;28;20030;-88
2022/04/04 11:29:56;;;;;;;0.65;0.65;;;;;;;;;;4987223;28;20034;-88
2022/04/04 11:32:26;;;;;;;0.50;0.47;;;;;;;;;;4983660;28;20097;-88
2022/04/04 11:34:57;;;;;;;1.70;0.50;;;;;;;;;;4979225;28;20047;-88
2022/04/04 11:37:26;;;;;;;0.17;0.17;;;;;;;;;;4985122;28;20126;-88
2022/04/04 11:40:00;;;;;;;1.27;1.17;;;;;;;;;;4990060;28;20058;-87
2022/04/04 11:42:29;;;;;;;0.63;0.40;;;;;;;;;;4995332;28;20464;-88
2022/04/04 11:44:55;;;;;;;0.20;0.20;;;;;;;;;;4985152;28;20450;-87
2022/04/04 11:47:21;;;;;;;0.55;0.52;;;;;;;;;;4982476;28;20134;-88
2022/04/04 11:49:49;;;;;;;1.10;0.80;;;;;;;;;;4985065;28;20026;-88
2022/04/04 11:52:18;;;;;;;0.88;0.88;;;;;;;;;;5014522;28;20093;-88
2022/04/04 11:54:45;;;;;;;0.43;0.43;;;;;;;;;;4967995;28;20089;-88
2022/04/04 11:57:11;;;;;;;0.45;0.45;;;;;;;;;;4983467;28;20038;-87
2022/04/04 11:59:41;;;;;;;0.10;0.10;;;;;;;;;;4982917;28;20498;-87
2022/04/04 12:02:09;;;;;;;0.77;0.77;;;;;;;;;;4985024;28;20069;-88
2022/04/04 12:04:39;;;;;;;0.10;0.10;;;;;;;;;;4982887;28;20030;-87
2022/04/04 12:07:05;;;;;;;0.30;0.30;;;;;;;;;;4984140;28;20117;-88
2022/04/04 12:09:32;;;;;;;2.05;0.63;;;;;;;;;;4983753;28;20291;-85
2022/04/04 12:12:08;;;;;;;0.10;0.10;;;;;;;;;;4983066;28;20053;-85
2022/04/04 12:14:39;;;;;;;0.40;0.40;;;;;;;;;;4981612;28;20065;-85
2022/04/04 12:17:06;;;;;;;0.10;0.10;;;;;;;;;;4981480;28;20037;-85
2022/04/04 12:19:32;;;;;;;0.10;0.10;;;;;;;;;;4981422;28;20039;-85
2022/04/04 12:21:58;;;;;;;0.73;0.73;;;;;;;;;;4983105;28;20574;-85
2022/04/04 12:27:13;;;;;;;0.30;0.30;;;;;;;;;;4982602;28;20528;-85
2022/04/04 12:29:40;;;;;;;0.20;0.20;;;;;;;;;;4976883;28;20763;-86
2022/04/04 12:32:13;;;;;;;0.60;0.47;;;;;;;;;;4981144;28;20026;-85
2022/04/04 12:34:39;;;;;;;0.40;0.30;;;;;;;;;;4982806;28;20475;-85
2022/04/04 12:37:08;;;;;;;0.30;0.30;;;;;;;;;;4982575;28;20101;-85
2022/04/04 12:39:34;;;;;;;0.20;0.20;;;;;;;;;;4983088;28;20034;-85
2022/04/04 12:42:06;;;;;;;0.10;0.10;;;;;;;;;;4981218;28;20416;-85
2022/04/04 12:44:33;;;;;;;0.40;0.40;;;;;;;;;;4981192;28;20085;-85
2022/04/04 12:47:14;;;;;;;0.80;0.75;;;;;;;;;;4982392;28;20084;-85
2022/04/04 12:49:40;;;;;;;0.05;0.05;;;;;;;;;;4982103;28;20773;-85
2022/04/04 12:52:07;;;;;;;0.10;0.10;;;;;;;;;;4983548;28;20393;-85
2022/04/04 12:54:34;;;;;;;;;;;;;;;;;;4985328;28;20831;-85
2022/04/04 12:57:01;;;;;;;0.25;0.15;;;;;;;;;;4981260;28;20479;-85
2022/04/04 12:59:27;;;;;;;0.15;0.15;;;;;;;;;;4981188;28;20038;-85
2022/04/04 13:02:09;;;;;;;0.30;0.30;;;;;;;;;;4981482;28;20034;-85
2022/04/04 13:04:36;;;;;;;0.20;0.20;;;;;;;;;;4981572;28;20193;-85
2022/04/04 13:07:02;;;;;;;0.20;0.20;;;;;;;;;;4983467;28;20053;-85
2022/04/04 13:09:30;;;;;;;35.23;0.73;;;;;;;;;;4984363;28;20053;-85
2022/04/04 13:11:56;;;;;;;0.13;0.13;;;;;;;;;;4981026;28;20033;-85
2022/04/04 13:14:23;;;;;;;0.10;0.10;;;;;;;;;;4981053;28;20034;-84
2022/04/04 13:16:49;;;;;;;0.30;0.30;;;;;;;;;;4981334;28;20038;-85
2022/04/04 13:19:17;;;;;;;1.60;0.85;;;;;;;;;;4982673;28;20034;-85
2022/04/04 13:21:44;;;;;;;0.30;0.30;;;;;;;;;;4984160;28;20117;-84
2022/04/04 13:24:10;;;;;;;0.20;0.20;;;;;;;;;;4982572;28;20037;-85
2022/04/04 13:26:37;;;;;;;0.43;0.43;;;;;;;;;;4980874;28;20068;-85
2022/04/04 13:29:04;;;;;;;0.20;0.20;;;;;;;;;;4980891;28;20045;-85
2022/04/04 13:31:30;;;;;;;0.10;0.10;;;;;;;;;;4981169;28;20085;-85
2022/04/04 13:33:56;;;;;;;0.30;0.30;;;;;;;;;;4985863;28;20030;-84
2022/04/04 13:36:26;;;;;;;1.52;0.60;;;;;;;;;;4985749;28;20425;-84
2022/04/04 13:38:58;;;;;;;0.43;0.43;;;;;;;;;;4984541;28;20034;-84
2022/04/04 13:41:26;;;;;;;0.22;0.22;;;;;;;;;;4984251;28;20031;-85
2022/04/04 13:43:52;;;;;;;0.10;0.10;;;;;;;;;;4984484;28;20116;-84
2022/04/04 13:46:19;;;;;;;0.10;0.10;;;;;;;;;;4968973;28;20057;-85
2022/04/04 13:48:47;;;;;;;0.50;0.50;;;;;;;;;;4987399;28;20064;-85
2022/04/04 13:51:18;;;;;;;0.20;0.20;;;;;;;;;;4984328;28;20117;-84
2022/04/04 13:53:44;;;;;;;1.27;0.60;;;;;;;;;;4984482;28;20104;-85
2022/04/04 13:56:10;;;;;;;0.57;0.57;;;;;;;;;;4983990;28;20042;-84
2022/04/04 13:58:38;;;;;;;0.67;0.30;;;;;;;;;;5015374;28;20108;-84
2022/04/04 14:01:04;;;;;;;0.35;0.35;;;;;;;;;;4984993;28;20485;-84
2022/04/04 14:03:31;;;;;;;0.10;0.10;;;;;;;;;;4983663;28;20097;-84
2022/04/04 14:06:29;;;;;;;0.75;0.30;;;;;;;;;;4984392;28;20041;-91
2022/04/04 14:08:55;;;;;;;0.20;0.20;;;;;;;;;;4985638;28;20046;-88
2022/04/04 14:11:21;;;;;;;0.20;0.20;;;;;;;;;;4986598;28;20494;-87
2022/04/04 14:13:48;;;;;;;0.30;0.30;;;;;;;;;;4984378;28;20022;-87
2022/04/04 14:16:14;;;;;;;0.20;0.20;;;;;;;;;;4985135;28;20406;-87
2022/04/04 14:18:41;;;;;;;0.28;0.28;;;;;;;;;;4986723;28;20061;-87
2022/04/04 14:21:09;;;;;;;0.50;0.50;;;;;;;;;;4984794;28;20034;-88
2022/04/04 14:23:37;;;;;;;0.22;0.22;;;;;;;;;;4984709;28;20029;-89
2022/04/04 14:26:03;;;;;;;0.65;0.45;;;;;;;;;;4987450;28;20030;-87
2022/04/04 14:28:29;;;;;;;0.13;0.13;;;;;;;;;;4987113;28;20618;-87
2022/04/04 14:30:57;;;;;;;1.10;0.37;;;;;;;;;;4987530;28;20030;-87
2022/04/04 14:33:23;;;;;;;0.30;0.30;;;;;;;;;;4986879;28;20054;-88
2022/04/04 14:35:50;;;;;;;1.05;1.00;;;;;;;;;;4983712;28;20041;-88
2022/04/04 14:38:16;;;;;;;0.70;0.68;;;;;;;;;;4985361;28;20401;-86
2022/04/04 14:40:43;;;;;;;1.40;0.57;;;;;;;;;;4985156;28;20034;-88
2022/04/04 14:43:09;;;;;;;0.45;0.45;;;;;;;;;;4985317;28;20817;-87
2022/04/04 14:45:36;;;;;;;0.30;0.30;;;;;;;;;;4985290;28;20042;-87
2022/04/04 14:48:06;;;;;;;0.10;0.10;;;;;;;;;;4984438;28;20088;-87
2022/04/04 14:50:32;;;;;;;1.33;1.13;;;;;;;;;;4983969;28;20049;-87
2022/04/04 14:52:58;;;;;;;0.65;0.55;;;;;;;;;;4983035;28;20034;-87
2022/04/04 14:55:24;;;;;;;0.10;0.10;;;;;;;;;;4983384;28;20045;-88
2022/04/04 14:57:50;;;;;;;0.03;0.03;;;;;;;;;;4986687;28;20038;-87